Time;durP1;ratioP1;P1;durP2;ratioP2;P2;SDS_P1;SDS_P2;PMS_P1;PMS_P2;Temp;Humidity;BMP_temperature;BMP_pressure;BME280_temperature;BME280_humidity;BME280_pressure;Samples;Min_cycle;Max_cycle;Signal;HPM_P1;HPM_P2
2023/06/03 00:01:40;;;;;;;3.88;1.08;;;;;;;;;;5039051;28;20083;-81
2023/06/03 00:04:06;;;;;;;2.25;1.02;;;;;;;;;;5055635;28;20029;-81
2023/06/03 00:06:33;;;;;;;2.67;1.52;;;;;;;;;;5043723;28;20075;-80
2023/06/03 00:08:59;;;;;;;5.13;1.25;;;;;;;;;;5055150;28;20076;-81
2023/06/03 00:11:25;;;;;;;3.40;1.60;;;;;;;;;;5047063;28;20471;-78
2023/06/03 00:13:51;;;;;;;6.05;1.58;;;;;;;;;;5042097;28;20030;-77
2023/06/03 00:16:17;;;;;;;6.32;1.48;;;;;;;;;;5050669;28;20506;-78
2023/06/03 00:18:43;;;;;;;4.55;1.42;;;;;;;;;;5036788;28;20029;-78
2023/06/03 00:21:10;;;;;;;4.55;1.50;;;;;;;;;;5046840;28;20087;-78
2023/06/03 00:23:36;;;;;;;3.00;1.20;;;;;;;;;;5044929;28;20024;-78
2023/06/03 00:26:03;;;;;;;4.55;1.50;;;;;;;;;;5039897;28;20488;-78
2023/06/03 00:28:29;;;;;;;4.25;1.23;;;;;;;;;;5050115;28;20060;-77
2023/06/03 00:30:55;;;;;;;1.73;0.90;;;;;;;;;;5039349;28;20021;-78
2023/06/03 00:33:21;;;;;;;3.53;1.40;;;;;;;;;;5045485;28;20025;-78
2023/06/03 00:35:47;;;;;;;4.78;1.35;;;;;;;;;;5046475;28;20025;-78
2023/06/03 00:38:13;;;;;;;3.10;1.10;;;;;;;;;;5037571;28;20033;-79
2023/06/03 00:40:39;;;;;;;5.28;1.38;;;;;;;;;;5032625;28;20024;-79
2023/06/03 00:43:05;;;;;;;8.13;1.60;;;;;;;;;;5043725;28;20021;-78
2023/06/03 00:45:31;;;;;;;4.80;1.27;;;;;;;;;;5044718;28;20029;-77
2023/06/03 00:47:57;;;;;;;4.43;1.23;;;;;;;;;;5028604;28;20651;-78
2023/06/03 00:50:24;;;;;;;7.10;1.60;;;;;;;;;;5036914;28;20051;-76
2023/06/03 00:52:50;;;;;;;4.80;1.58;;;;;;;;;;5049507;28;20025;-78
2023/06/03 00:55:16;;;;;;;4.95;1.88;;;;;;;;;;5041731;28;20052;-79
2023/06/03 00:57:42;;;;;;;2.58;1.48;;;;;;;;;;5054340;28;20087;-78
2023/06/03 01:00:08;;;;;;;6.10;1.58;;;;;;;;;;5066302;28;20029;-77
2023/06/03 01:02:36;;;;;;;4.10;1.38;;;;;;;;;;5048838;28;20403;-78
2023/06/03 01:05:03;;;;;;;2.50;1.08;;;;;;;;;;5047588;28;20376;-78
2023/06/03 01:07:29;;;;;;;1.38;0.90;;;;;;;;;;5024902;28;20021;-79
2023/06/03 01:09:56;;;;;;;3.45;1.17;;;;;;;;;;5039880;28;20515;-78
2023/06/03 01:12:35;;;;;;;5.05;1.52;;;;;;;;;;5048878;28;20060;-77
2023/06/03 01:15:04;;;;;;;4.70;1.38;;;;;;;;;;5039333;28;20112;-78
2023/06/03 01:17:35;;;;;;;3.92;1.25;;;;;;;;;;5048321;28;20022;-80
2023/06/03 01:20:03;;;;;;;5.78;1.45;;;;;;;;;;5059018;28;20028;-80
2023/06/03 01:22:30;;;;;;;6.63;1.75;;;;;;;;;;5048972;28;20028;-80
2023/06/03 01:25:03;;;;;;;5.45;1.63;;;;;;;;;;5059807;28;20410;-79
2023/06/03 01:27:30;;;;;;;5.03;1.50;;;;;;;;;;5054515;28;20021;-80
2023/06/03 01:29:56;;;;;;;4.22;1.92;;;;;;;;;;5052097;28;20029;-79
2023/06/03 01:32:22;;;;;;;3.08;1.75;;;;;;;;;;5051090;23;20080;-74
2023/06/03 01:34:48;;;;;;;4.28;1.90;;;;;;;;;;5028746;28;20022;-74
2023/06/03 01:37:14;;;;;;;5.30;1.52;;;;;;;;;;5020099;28;20064;-74
2023/06/03 01:39:41;;;;;;;4.30;1.75;;;;;;;;;;5021293;28;20476;-74
2023/06/03 01:42:10;;;;;;;10.07;2.38;;;;;;;;;;5010117;28;20638;-74
2023/06/03 01:44:37;;;;;;;8.00;2.80;;;;;;;;;;5016418;28;20515;-74
2023/06/03 01:47:04;;;;;;;5.45;2.35;;;;;;;;;;5026029;28;20154;-74
2023/06/03 01:49:31;;;;;;;7.20;3.22;;;;;;;;;;5022317;28;20037;-74
2023/06/03 01:52:00;;;;;;;9.27;3.13;;;;;;;;;;5018723;28;20543;-74
2023/06/03 01:54:26;;;;;;;6.88;3.15;;;;;;;;;;5029041;28;20040;-74
2023/06/03 01:56:53;;;;;;;9.68;2.72;;;;;;;;;;5000392;28;20017;-74
2023/06/03 01:59:23;;;;;;;7.05;2.65;;;;;;;;;;5023893;28;20034;-74
2023/06/03 02:01:49;;;;;;;6.35;2.53;;;;;;;;;;5024681;28;20480;-74
2023/06/03 02:04:15;;;;;;;6.82;3.00;;;;;;;;;;5016300;28;20108;-75
2023/06/03 02:06:41;;;;;;;5.93;2.78;;;;;;;;;;5029112;28;20539;-75
2023/06/03 02:09:10;;;;;;;5.82;2.88;;;;;;;;;;5018747;28;20018;-75
2023/06/03 02:11:36;;;;;;;6.40;2.50;;;;;;;;;;5021434;28;20025;-74
2023/06/03 02:14:02;;;;;;;7.65;2.60;;;;;;;;;;5027120;28;20029;-74
2023/06/03 02:16:28;;;;;;;5.20;3.30;;;;;;;;;;5015827;28;20145;-75
2023/06/03 02:18:54;;;;;;;9.70;3.58;;;;;;;;;;5026245;28;20065;-75
2023/06/03 02:21:20;;;;;;;6.88;3.20;;;;;;;;;;5020870;28;20101;-74
2023/06/03 02:23:46;;;;;;;8.07;2.95;;;;;;;;;;5019998;28;20018;-74
2023/06/03 02:26:13;;;;;;;5.43;3.10;;;;;;;;;;5028096;28;20029;-74
2023/06/03 02:28:40;;;;;;;6.22;3.20;;;;;;;;;;5015226;28;20395;-74
2023/06/03 02:31:06;;;;;;;6.03;2.55;;;;;;;;;;5025432;28;20083;-74
2023/06/03 02:33:32;;;;;;;5.32;2.88;;;;;;;;;;5022217;28;20029;-74
2023/06/03 02:35:58;;;;;;;4.65;2.40;;;;;;;;;;5018080;28;20080;-74
2023/06/03 02:38:24;;;;;;;8.60;2.85;;;;;;;;;;5027203;28;20037;-74
2023/06/03 02:40:50;;;;;;;4.22;2.83;;;;;;;;;;5016290;28;20013;-74
2023/06/03 02:43:16;;;;;;;8.07;3.20;;;;;;;;;;5023933;28;20044;-74
2023/06/03 02:45:42;;;;;;;7.47;3.00;;;;;;;;;;5022799;28;20451;-74
2023/06/03 02:48:08;;;;;;;6.40;2.70;;;;;;;;;;5015560;28;20037;-74
2023/06/03 02:50:33;;;;;;;4.55;2.78;;;;;;;;;;5028074;28;20021;-74
2023/06/03 02:53:00;;;;;;;8.02;2.90;;;;;;;;;;4999772;28;20025;-74
2023/06/03 02:55:27;;;;;;;9.95;2.80;;;;;;;;;;5022220;28;20109;-74
2023/06/03 02:57:53;;;;;;;6.90;2.55;;;;;;;;;;5023671;28;20037;-75
2023/06/03 03:00:19;;;;;;;6.00;2.60;;;;;;;;;;5014632;28;20057;-74
2023/06/03 03:02:45;;;;;;;4.28;2.28;;;;;;;;;;5027143;28;20029;-74
2023/06/03 03:05:11;;;;;;;9.10;2.58;;;;;;;;;;5018690;28;20025;-75
2023/06/03 03:07:37;;;;;;;7.40;2.63;;;;;;;;;;5018510;28;20018;-75
2023/06/03 03:10:04;;;;;;;5.13;2.35;;;;;;;;;;5025604;28;20040;-75
2023/06/03 03:12:30;;;;;;;4.90;2.47;;;;;;;;;;5014540;28;20451;-75
2023/06/03 03:14:56;;;;;;;5.38;2.60;;;;;;;;;;5027001;28;20022;-74
2023/06/03 03:17:22;;;;;;;6.82;2.47;;;;;;;;;;5020022;28;20030;-74
2023/06/03 03:19:48;;;;;;;6.75;3.50;;;;;;;;;;5001172;28;20030;-73
2023/06/03 03:22:14;;;;;;;7.65;2.53;;;;;;;;;;5027032;28;20030;-74
2023/06/03 03:24:42;;;;;;;4.72;2.58;;;;;;;;;;5014346;28;20546;-74
2023/06/03 03:27:08;;;;;;;7.40;2.75;;;;;;;;;;5023403;28;20018;-74
2023/06/03 03:29:35;;;;;;;8.15;2.75;;;;;;;;;;5021374;28;20300;-74
2023/06/03 03:32:06;;;;;;;4.45;2.17;;;;;;;;;;5016673;28;20042;-74
2023/06/03 03:34:32;;;;;;;5.82;2.50;;;;;;;;;;5027440;28;20018;-74
2023/06/03 03:36:59;;;;;;;18.00;3.08;;;;;;;;;;5020429;28;20442;-74
2023/06/03 03:39:25;;;;;;;5.38;2.65;;;;;;;;;;5007617;28;20112;-75
2023/06/03 03:41:51;;;;;;;4.88;2.40;;;;;;;;;;5027914;28;20064;-75
2023/06/03 03:44:17;;;;;;;6.70;2.50;;;;;;;;;;5018574;28;20058;-75
2023/06/03 03:46:58;;;;;;;4.53;2.00;;;;;;;;;;5031535;28;20014;-75
2023/06/03 03:49:27;;;;;;;3.67;2.30;;;;;;;;;;5024924;28;20021;-76
2023/06/03 03:51:54;;;;;;;5.63;2.17;;;;;;;;;;5004900;28;20117;-75
2023/06/03 03:54:23;;;;;;;4.22;2.10;;;;;;;;;;5032640;28;20167;-75
2023/06/03 03:56:56;;;;;;;3.97;2.20;;;;;;;;;;5020625;28;20047;-75
2023/06/03 03:59:22;;;;;;;4.80;2.15;;;;;;;;;;5026485;28;20038;-75
2023/06/03 04:01:48;;;;;;;3.80;1.70;;;;;;;;;;5028148;28;20112;-75
2023/06/03 04:04:21;;;;;;;3.13;2.13;;;;;;;;;;5018666;28;20106;-75
2023/06/03 04:06:47;;;;;;;5.20;2.28;;;;;;;;;;5018926;28;20022;-75
2023/06/03 04:09:14;;;;;;;5.82;2.22;;;;;;;;;;5008335;28;20385;-75
2023/06/03 04:11:42;;;;;;;4.15;2.20;;;;;;;;;;5025370;28;20541;-76
2023/06/03 04:14:10;;;;;;;3.55;2.20;;;;;;;;;;5001583;28;20065;-76
2023/06/03 04:16:36;;;;;;;2.70;2.00;;;;;;;;;;5030516;28;20026;-76
2023/06/03 04:19:11;;;;;;;3.72;1.90;;;;;;;;;;5019663;28;20076;-76
2023/06/03 04:21:38;;;;;;;6.30;2.30;;;;;;;;;;5023083;28;20032;-76
2023/06/03 04:24:07;;;;;;;3.83;2.03;;;;;;;;;;5028771;28;20079;-75
2023/06/03 04:26:34;;;;;;;2.90;1.90;;;;;;;;;;5017489;28;20502;-76
2023/06/03 04:29:02;;;;;;;2.28;1.70;;;;;;;;;;5027189;28;20102;-74
2023/06/03 04:31:28;;;;;;;5.18;2.10;;;;;;;;;;5005651;28;20049;-74
2023/06/03 04:33:53;;;;;;;5.22;2.08;;;;;;;;;;5020711;28;20083;-73
2023/06/03 04:36:20;;;;;;;3.35;2.38;;;;;;;;;;5012629;28;20036;-74
2023/06/03 04:38:47;;;;;;;4.25;1.70;;;;;;;;;;4999592;28;20089;-74
2023/06/03 04:41:15;;;;;;;4.00;1.85;;;;;;;;;;5026143;28;20400;-74
2023/06/03 04:43:45;;;;;;;5.60;1.35;;;;;;;;;;5025025;28;20724;-75
2023/06/03 04:46:11;;;;;;;5.65;1.98;;;;;;;;;;5000162;28;20022;-76
2023/06/03 04:48:41;;;;;;;6.43;1.50;;;;;;;;;;5029454;28;20045;-75
2023/06/03 04:51:07;;;;;;;3.90;1.70;;;;;;;;;;5020419;28;20017;-76
2023/06/03 04:53:36;;;;;;;4.78;1.73;;;;;;;;;;5023212;28;20033;-75
2023/06/03 04:56:02;;;;;;;5.13;1.80;;;;;;;;;;5028298;28;20459;-75
2023/06/03 04:58:28;;;;;;;4.15;1.70;;;;;;;;;;5015386;28;20524;-75
2023/06/03 05:00:54;;;;;;;5.68;1.65;;;;;;;;;;5000973;28;20029;-75
2023/06/03 05:03:22;;;;;;;6.25;1.60;;;;;;;;;;5025564;28;20441;-75
2023/06/03 05:05:48;;;;;;;5.00;1.58;;;;;;;;;;5026158;28;20025;-75
2023/06/03 05:08:15;;;;;;;4.60;1.58;;;;;;;;;;5017842;28;20026;-75
2023/06/03 05:10:41;;;;;;;7.82;1.88;;;;;;;;;;5025626;28;20271;-75
2023/06/03 05:13:07;;;;;;;6.20;1.80;;;;;;;;;;5011551;28;20055;-75
2023/06/03 05:15:34;;;;;;;4.22;1.40;;;;;;;;;;5022816;28;20388;-75
2023/06/03 05:18:03;;;;;;;4.00;1.58;;;;;;;;;;5025032;28;20055;-75
2023/06/03 05:20:29;;;;;;;6.15;1.60;;;;;;;;;;5014929;28;20029;-74
2023/06/03 05:22:55;;;;;;;2.22;1.17;;;;;;;;;;5009453;28;20022;-75
2023/06/03 05:25:23;;;;;;;3.33;1.52;;;;;;;;;;5022033;28;20025;-74
2023/06/03 05:27:49;;;;;;;3.75;1.63;;;;;;;;;;5018952;28;20037;-75
2023/06/03 05:30:15;;;;;;;4.45;1.50;;;;;;;;;;5011840;28;20128;-75
2023/06/03 05:32:44;;;;;;;2.95;2.00;;;;;;;;;;5016724;28;20036;-74
2023/06/03 05:35:10;;;;;;;2.67;1.42;;;;;;;;;;5008148;28;20029;-74
2023/06/03 05:37:36;;;;;;;4.13;1.80;;;;;;;;;;5023126;28;20026;-74
2023/06/03 05:40:03;;;;;;;4.63;1.52;;;;;;;;;;5018735;28;20037;-74
2023/06/03 05:42:28;;;;;;;2.80;1.77;;;;;;;;;;5029169;28;20029;-74
2023/06/03 05:44:55;;;;;;;5.38;1.67;;;;;;;;;;5017911;28;20104;-74
2023/06/03 05:47:21;;;;;;;5.07;1.67;;;24.90;28.20;;;;;;5023450;28;20022;-74
2023/06/03 05:49:46;;;;;;;3.63;1.50;;;25.90;27.10;;;;;;5025054;28;20038;-74
2023/06/03 05:52:12;;;;;;;3.75;1.60;;;26.60;26.50;;;;;;5016881;28;20026;-75
2023/06/03 05:54:38;;;;;;;6.25;1.77;;;27.20;25.70;;;;;;5029026;28;20034;-75
2023/06/03 05:57:04;;;;;;;5.43;1.75;;;;;;;;;;5018503;28;20029;-75
2023/06/03 05:59:30;;;;;;;4.05;1.58;;;;;;;;;;5021602;28;20029;-75
2023/06/03 06:01:56;;;;;;;5.80;1.90;;;;;;;;;;5027262;28;20029;-75
2023/06/03 06:04:22;;;;;;;5.05;1.73;;;;;;;;;;5033443;28;20484;-75
2023/06/03 06:06:48;;;;;;;6.63;1.67;;;;;;;;;;5019732;28;20095;-76
2023/06/03 06:09:14;;;;;;;4.35;1.80;;;25.50;28.70;;;;;;5035890;28;20045;-75
2023/06/03 06:11:40;;;;;;;4.47;1.75;;;;;;;;;;5023592;28;20033;-75
2023/06/03 06:14:05;;;;;;;4.68;1.52;;;26.10;27.00;;;;;;5022239;28;20034;-75
2023/06/03 06:16:31;;;;;;;6.05;1.92;;;26.70;26.30;;;;;;5028630;28;20028;-75
2023/06/03 06:18:58;;;;;;;3.38;1.55;;;;;;;;;;5017591;28;20035;-75
2023/06/03 06:21:24;;;;;;;3.30;1.73;;;26.10;26.30;;;;;;5025293;28;20430;-75
2023/06/03 06:23:50;;;;;;;5.25;2.17;;;;;;;;;;5029170;28;20096;-75
2023/06/03 06:26:16;;;;;;;3.45;1.50;;;;;;;;;;5018900;28;20033;-75
2023/06/03 06:28:42;;;;;;;3.20;1.67;;;25.90;25.20;;;;;;5032137;28;20048;-74
2023/06/03 06:31:09;;;;;;;5.97;2.08;;;;;;;;;;5021495;28;20021;-76
2023/06/03 06:33:35;;;;;;;5.90;1.90;;;;;;;;;;5024266;28;20042;-75
2023/06/03 06:36:22;;;;;;;3.08;1.60;;;;;;;;;;5029262;28;20026;-74
2023/06/03 06:38:48;;;;;;;5.90;1.70;;;;;;;;;;4987542;28;20030;-75
2023/06/03 06:41:15;;;;;;;5.70;1.92;;;;;;;;;;5020182;28;20022;-75
2023/06/03 06:43:41;;;;;;;3.90;2.00;;;;;;;;;;5020419;28;20029;-75
2023/06/03 06:46:07;;;;;;;6.20;1.83;;;;;;;;;;5026662;28;20066;-75
2023/06/03 06:48:34;;;;;;;7.30;1.98;;;;;;;;;;5014362;28;20026;-74
2023/06/03 06:51:00;;;;;;;4.85;1.42;;;;;;;;;;5007952;28;20022;-75
2023/06/03 06:53:28;;;;;;;6.05;1.80;;;25.50;25.80;;;;;;5021254;28;20140;-75
2023/06/03 06:55:55;;;;;;;5.65;1.60;;;26.00;25.50;;;;;;5018012;28;20030;-74
2023/06/03 06:58:21;;;;;;;3.33;1.00;;;;;;;;;;5026959;28;20025;-74
2023/06/03 07:00:48;;;;;;;2.92;1.40;;;26.10;24.90;;;;;;5015385;28;20025;-75
2023/06/03 07:03:19;;;;;;;2.88;1.35;;;26.40;24.40;;;;;;5023333;28;20041;-75
2023/06/03 07:05:46;;;;;;;;;;;;;;;;;;5023536;28;20028;-75
2023/06/03 07:08:12;;;;;;;3.78;1.23;;;;;;;;;;5014653;28;20371;-76
2023/06/03 07:10:38;;;;;;;3.08;1.50;;;26.00;24.50;;;;;;5027760;28;20384;-75
2023/06/03 07:13:06;;;;;;;4.03;1.45;;;26.90;24.00;;;;;;5018220;28;20029;-75
2023/06/03 07:15:32;;;;;;;6.57;1.98;;;27.70;22.90;;;;;;5021643;28;20054;-75
2023/06/03 07:17:59;;;;;;;4.90;1.30;;;;;;;;;;5026494;28;20063;-75
2023/06/03 07:20:33;;;;;;;5.65;1.27;;;26.70;24.00;;;;;;5021207;28;20036;-75
2023/06/03 07:22:59;;;;;;;4.85;1.55;;;;;;;;;;5029486;28;20061;-75
2023/06/03 07:25:28;;;;;;;1.88;1.00;;;;;;;;;;5008590;28;20021;-75
2023/06/03 07:27:54;;;;;;;3.65;1.85;;;;;;;;;;5018006;28;20030;-75
2023/06/03 07:30:20;;;;;;;4.93;1.75;;;26.00;25.70;;;;;;5028308;28;20406;-74
2023/06/03 07:32:45;;;;;;;3.28;1.52;;;27.00;23.30;;;;;;5059199;23;20091;-79
2023/06/03 07:35:21;;;;;;;2.17;1.10;;;26.90;23.50;;;;;;5043518;28;20040;-76
2023/06/03 07:37:47;;;;;;;5.40;1.52;;;;;;;;;;5024519;28;20483;-74
2023/06/03 07:40:17;;;;;;;6.75;1.50;;;;;;;;;;5016669;28;20030;-76
2023/06/03 07:42:46;;;;;;;3.75;1.33;;;;;;;;;;5034039;28;20053;-76
2023/06/03 07:45:13;;;;;;;2.63;1.17;;;;;;;;;;5042842;28;20025;-75
2023/06/03 07:47:40;;;;;;;4.57;1.38;;;;;;;;;;5041079;28;20021;-76
2023/06/03 07:50:26;;;;;;;2.97;1.30;;;26.80;23.80;;;;;;5035527;28;20028;-76
2023/06/03 07:53:05;;;;;;;4.13;1.17;;;27.90;22.20;;;;;;5017511;28;20018;-76
2023/06/03 07:55:39;;;;;;;3.35;1.48;;;28.50;22.20;;;;;;5040295;28;20037;-77
2023/06/03 07:58:05;;;;;;;4.28;1.27;;;29.90;19.70;;;;;;5044660;28;20028;-77
2023/06/03 08:00:32;;;;;;;6.90;1.48;;;29.50;20.10;;;;;;5037051;28;20040;-77
2023/06/03 08:02:58;;;;;;;2.90;1.23;;;;;;;;;;5031853;28;20542;-76
2023/06/03 08:05:35;;;;;;;2.15;1.05;;;;;;;;;;5030908;28;20030;-76
2023/06/03 08:08:03;;;;;;;4.70;1.05;;;27.10;22.40;;;;;;5026184;28;20029;-77
2023/06/03 08:10:29;;;;;;;3.25;1.10;;;27.30;20.90;;;;;;5033776;28;20061;-77
2023/06/03 08:12:54;;;;;;;5.47;1.00;;;27.90;21.10;;;;;;5027185;28;20103;-70
2023/06/03 08:15:32;;;;;;;5.03;2.80;;;29.10;20.70;;;;;;5033987;28;20057;-70
2023/06/03 08:17:58;;;;;;;6.75;1.20;;;28.90;20.20;;;;;;5043182;28;20033;-71
2023/06/03 08:20:28;;;;;;;22.52;16.45;;;28.70;19.50;;;;;;5034044;28;20394;-69
2023/06/03 08:22:54;;;;;;;6.45;1.30;;;;;;;;;;5048275;28;20026;-70
2023/06/03 08:25:20;;;;;;;7.85;3.35;;;;;;;;;;5042519;28;20113;-71
2023/06/03 08:27:46;;;;;;;4.25;1.25;;;;;;;;;;5040541;28;20030;-69
2023/06/03 08:30:12;;;;;;;4.50;3.20;;;;;;;;;;5045771;28;20037;-70
2023/06/03 08:32:39;;;;;;;4.18;1.35;;;;;;;;;;5049964;28;20041;-70
2023/06/03 08:35:06;;;;;;;3.42;0.98;;;;;;;;;;5039618;28;20052;-70
2023/06/03 08:37:33;;;;;;;9.65;1.50;;;;;;;;;;5042604;28;20029;-69
2023/06/03 08:39:59;;;;;;;7.30;1.23;;;;;;;;;;5047423;28;20159;-70
2023/06/03 08:42:30;;;;;;;8.38;1.48;;;;;;;;;;5039025;28;20037;-70
2023/06/03 08:44:56;;;;;;;;;;;;;;;;;;5044463;28;20383;-70
2023/06/03 08:47:46;;;;;;;5.40;1.38;;;;;;;;;;5041741;28;19905;-70
2023/06/03 08:50:12;;;;;;;3.53;1.00;;;;;;;;;;5009398;28;20613;-70
2023/06/03 08:52:39;;;;;;;4.00;1.23;;;;;;;;;;5049686;28;20515;-70
2023/06/03 08:55:10;;;;;;;7.22;1.30;;;;;;;;;;5022274;28;20017;-69
2023/06/03 08:57:41;;;;;;;4.32;1.23;;;;;;;;;;5041752;28;20045;-70
2023/06/03 09:00:09;;;;;;;4.72;1.50;;;;;;;;;;5048367;28;20029;-70
2023/06/03 09:02:38;;;;;;;97.40;68.93;;;26.70;23.30;;;;;;5041746;28;20026;-70
2023/06/03 09:05:04;;;;;;;13.85;9.18;;;27.00;23.80;;;;;;5026970;28;20032;-71
2023/06/03 09:07:31;;;;;;;48.03;36.92;;;27.40;21.70;;;;;;5040664;28;20021;-69
2023/06/03 09:09:58;;;;;;;7.40;4.25;;;28.20;21.30;;;;;;5037789;28;20047;-69
2023/06/03 09:12:26;;;;;;;4.78;1.58;;;;;;;;;;5033871;28;20116;-69
2023/06/03 09:14:54;;;;;;;2.35;1.15;;;;;;;;;;5048735;28;20095;-69
2023/06/03 09:17:24;;;;;;;6.90;1.85;;;;;;;;;;5025590;28;20022;-69
2023/06/03 09:19:50;;;;;;;8.77;1.77;;;;;;;;;;5032782;28;20048;-70
2023/06/03 09:22:17;;;;;;;4.28;1.60;;;;;;;;;;5032892;28;20033;-70
2023/06/03 09:24:44;;;;;;;7.63;2.85;;;;;;;;;;5036529;28;20047;-70
2023/06/03 09:27:10;;;;;;;8.32;3.00;;;;;;;;;;5045026;28;20022;-69
2023/06/03 09:29:36;;;;;;;3.60;1.30;;;;;;;;;;5043660;28;20021;-71
2023/06/03 09:32:03;;;;;;;4.35;1.00;;;;;;;;;;5037865;28;20107;-70
2023/06/03 09:34:29;;;;;;;3.42;1.20;;;;;;;;;;5047960;28;20036;-71
2023/06/03 09:36:55;;;;;;;1.85;0.82;;;;;;;;;;5038154;28;20027;-70
2023/06/03 09:39:31;;;;;;;4.00;1.63;;;;;;;;;;5043035;28;20097;-71
2023/06/03 09:41:57;;;;;;;4.85;1.23;;;;;;;;;;5046154;28;20025;-70
2023/06/03 09:44:23;;;;;;;4.90;1.10;;;;;;;;;;5035595;28;20025;-69
2023/06/03 09:46:50;;;;;;;2.90;0.93;;;;;;;;;;5047520;28;20561;-71
2023/06/03 09:49:19;;;;;;;2.22;1.00;;;;;;;;;;5021220;28;20108;-70
2023/06/03 09:51:46;;;;;;;4.25;1.85;;;;;;;;;;5039373;28;20074;-70
2023/06/03 09:54:17;;;;;;;4.55;0.90;;;;;;;;;;5030072;28;20487;-70
2023/06/03 09:56:46;;;;;;;1.73;0.93;;;;;;;;;;5035328;28;20025;-70
2023/06/03 09:59:16;;;;;;;5.25;1.40;;;;;;;;;;5043622;28;20271;-70
2023/06/03 10:01:43;;;;;;;4.13;1.20;;;;;;;;;;5043062;28;20413;-70
2023/06/03 10:04:10;;;;;;;4.20;1.20;;;;;;;;;;5036662;28;20159;-70
2023/06/03 10:06:36;;;;;;;2.50;1.20;;;;;;;;;;5048392;28;20033;-69
2023/06/03 10:09:25;;;;;;;3.75;1.33;;;;;;;;;;5037190;28;20017;-71
2023/06/03 10:11:52;;;;;;;3.10;1.00;;;;;;;;;;5038996;28;20037;-69
2023/06/03 10:14:22;;;;;;;3.22;1.15;;;;;;;;;;5048045;28;20021;-70
2023/06/03 10:17:03;;;;;;;3.55;0.95;;;;;;;;;;5038685;28;20029;-70
2023/06/03 10:19:29;;;;;;;5.65;1.08;;;;;;;;;;5037066;28;20033;-71
2023/06/03 10:21:56;;;;;;;3.35;1.00;;;;;;;;;;5045465;28;20025;-70
2023/06/03 10:24:22;;;;;;;2.25;0.90;;;;;;;;;;5035497;28;20034;-69
2023/06/03 10:26:49;;;;;;;3.10;0.85;;;;;;;;;;5047540;28;20018;-69
2023/06/03 10:29:16;;;;;;;2.47;1.15;;;;;;;;;;5038829;28;20033;-71
2023/06/03 10:31:43;;;;;;;2.78;1.00;;;;;;;;;;5046932;28;20062;-69
2023/06/03 10:34:09;;;;;;;7.22;1.08;;;;;;;;;;5031538;28;20106;-69
2023/06/03 10:36:36;;;;;;;2.72;0.90;;;;;;;;;;5033756;28;20025;-71
2023/06/03 10:39:06;;;;;;;2.25;0.88;;;;;;;;;;5044563;28;20029;-70
2023/06/03 10:41:33;;;;;;;4.32;0.80;;;;;;;;;;5041472;28;20505;-69
2023/06/03 10:43:59;;;;;;;4.18;1.20;;;;;;;;;;5037263;28;20035;-70
2023/06/03 10:46:25;;;;;;;2.83;0.90;;;;;;;;;;5047798;28;20021;-74
2023/06/03 10:48:51;;;;;;;1.58;0.70;;;;;;;;;;5035336;28;20098;-75
2023/06/03 10:51:20;;;;;;;2.47;0.98;;;;;;;;;;5042640;28;20498;-75
2023/06/03 10:54:08;;;;;;;1.27;0.80;;;;;;;;;;5043563;28;20025;-75
2023/06/03 10:56:47;;;;;;;2.45;1.23;;;;;;;;;;5035169;28;20025;-75
2023/06/03 10:59:16;;;;;;;2.58;1.15;;;;;;;;;;5042274;28;20021;-75
2023/06/03 11:01:58;;;;;;;5.63;1.30;;;;;;;;;;5041684;28;20525;-75
2023/06/03 11:04:24;;;;;;;6.72;1.05;;;;;;;;;;5016158;28;20056;-73
2023/06/03 11:06:50;;;;;;;2.35;0.75;;;;;;;;;;5047552;28;20789;-74
2023/06/03 11:09:29;;;;;;;2.05;0.80;;;;;;;;;;5040065;28;20782;-75
2023/06/03 11:12:03;;;;;;;2.35;1.02;;;;;;;;;;5019411;28;20021;-74
2023/06/03 11:14:38;;;;;;;2.72;0.95;;;;;;;;;;5047311;28;20061;-75
2023/06/03 11:17:04;;;;;;;2.40;0.82;;;;;;;;;;5018953;28;20028;-74
2023/06/03 11:19:30;;;;;;;2.38;0.80;;;;;;;;;;5041135;28;20557;-75
2023/06/03 11:21:56;;;;;;;3.90;0.93;;;;;;;;;;5044803;28;20025;-74
2023/06/03 11:24:41;;;;;;;5.53;0.98;;;;;;;;;;5034461;28;20029;-74
2023/06/03 11:27:10;;;;;;;2.22;0.82;;;;;;;;;;5043561;28;20017;-74
2023/06/03 11:29:45;;;;;;;2.63;1.08;;;;;;;;;;5024155;28;20044;-74
2023/06/03 11:32:12;;;;;;;3.10;0.95;;;;;;;;;;5017408;28;20069;-75
2023/06/03 11:34:38;;;;;;;5.20;1.00;;;;;;;;;;5047418;28;20053;-75
2023/06/03 11:37:04;;;;;;;3.08;1.20;;;;;;;;;;5036644;28;20522;-73
2023/06/03 11:39:49;;;;;;;1.90;0.98;;;;;;;;;;5040899;28;20060;-74
2023/06/03 11:42:15;;;;;;;4.03;1.10;;;;;;;;;;5046815;28;20083;-75
2023/06/03 11:44:42;;;;;;;3.90;0.77;;;;;;;;;;5034029;28;20017;-74
2023/06/03 11:47:08;;;;;;;3.40;0.93;;;;;;;;;;5024737;28;20021;-74
2023/06/03 11:49:35;;;;;;;4.60;0.93;;;;;;;;;;5040689;28;20152;-75
2023/06/03 11:52:01;;;;;;;2.80;0.90;;;;;;;;;;5036095;28;20086;-73
2023/06/03 11:54:27;;;;;;;1.88;0.70;;;;;;;;;;5046675;28;20510;-73
2023/06/03 11:56:59;;;;;;;3.58;0.63;;;;;;;;;;5037322;28;20725;-74
2023/06/03 11:59:36;;;;;;;2.78;0.85;;;;;;;;;;5044943;28;20041;-74
2023/06/03 12:02:03;;;;;;;3.08;1.33;;;;;;;;;;5016335;28;20029;-75
2023/06/03 12:04:30;;;;;;;1.05;0.82;;;;;;;;;;5050628;28;20021;-73
2023/06/03 12:06:56;;;;;;;4.75;1.05;;;;;;;;;;5039503;28;20013;-75
2023/06/03 12:09:26;;;;;;;5.40;0.70;;;;;;;;;;5044615;28;20029;-75
2023/06/03 12:11:56;;;;;;;1.45;0.63;;;;;;;;;;5047366;28;20025;-74
2023/06/03 12:14:28;;;;;;;3.30;0.93;;;;;;;;;;5037645;28;20044;-75
2023/06/03 12:17:07;;;;;;;2.05;1.02;;;;;;;;;;5049391;28;20029;-75
2023/06/03 12:19:36;;;;;;;2.50;1.27;;;;;;;;;;5044785;28;20025;-76
2023/06/03 12:22:02;;;;;;;2.00;1.10;;;;;;;;;;5039742;28;20056;-75
2023/06/03 12:24:31;;;;;;;2.72;0.77;;;;;;;;;;5052043;28;20033;-74
2023/06/03 12:26:58;;;;;;;2.17;1.17;;;;;;;;;;5048459;28;20080;-76
2023/06/03 12:29:24;;;;;;;3.22;0.95;;;;;;;;;;5042781;28;20021;-75
2023/06/03 12:32:17;;;;;;;2.10;0.93;;;;;;;;;;5040624;28;20029;-75
2023/06/03 12:34:43;;;;;;;3.80;0.82;;;;;;;;;;5045549;28;20128;-74
2023/06/03 12:37:12;;;;;;;2.38;0.82;;;;;;;;;;5040527;28;20487;-74
2023/06/03 12:39:48;;;;;;;1.85;1.02;;;;;;;;;;5042801;28;20171;-74
2023/06/03 12:42:15;;;;;;;5.35;0.85;;;;;;;;;;5049500;28;20081;-74
2023/06/03 12:44:49;;;;;;;2.00;0.90;;;;;;;;;;5036316;28;20028;-69
2023/06/03 12:47:16;;;;;;;1.63;0.85;;;;;;;;;;5044755;28;20025;-69
2023/06/03 12:49:43;;;;;;;8.52;1.23;;;;;;;;;;5033602;28;20028;-69
2023/06/03 12:52:16;;;;;;;1.38;0.90;;;;;;;;;;5033214;28;20191;-70
2023/06/03 12:54:44;;;;;;;2.35;0.82;;;;;;;;;;5049671;28;20026;-69
2023/06/03 12:57:10;;;;;;;2.05;0.80;;;;;;;;;;5039632;28;20052;-70
2023/06/03 12:59:54;;;;;;;1.45;0.85;;;;;;;;;;5042502;28;20386;-70
2023/06/03 13:02:20;;;;;;;1.73;1.10;;;;;;;;;;5049421;28;20036;-71
2023/06/03 13:04:46;;;;;;;1.95;0.95;;;;;;;;;;5037262;28;20391;-68
2023/06/03 13:07:12;;;;;;;2.03;1.00;;;;;;;;;;5044246;28;20044;-70
2023/06/03 13:09:38;;;;;;;3.22;1.20;;;;;;;;;;5044114;28;20017;-69
2023/06/03 13:12:04;;;;;;;6.65;4.60;;;;;;;;;;5038850;28;20522;-70
2023/06/03 13:14:30;;;;;;;2.85;2.05;;;;;;;;;;5049453;28;20058;-69
2023/06/03 13:16:56;;;;;;;2.05;0.93;;;;;;;;;;5025850;28;20466;-70
2023/06/03 13:19:22;;;;;;;3.00;0.82;;;;;;;;;;5033382;28;20029;-70
2023/06/03 13:21:49;;;;;;;10.57;6.43;;;;;;;;;;5047580;28;20021;-68
2023/06/03 13:24:15;;;;;;;1.23;0.88;;;;;;;;;;5034628;28;20018;-69
2023/06/03 13:26:41;;;;;;;3.05;1.30;;;;;;;;;;5047436;28;20029;-68
2023/06/03 13:29:07;;;;;;;5.88;2.95;;;;;;;;;;5036876;28;20431;-69
2023/06/03 13:31:33;;;;;;;2.35;0.80;;;;;;;;;;5048513;28;20931;-70
2023/06/03 13:33:59;;;;;;;5.75;0.88;;;;;;;;;;5046437;23;20041;-68
2023/06/03 13:36:25;;;;;;;3.95;0.70;;;;;;;;;;5014460;28;20022;-75
2023/06/03 13:38:51;;;;;;;1.27;0.93;;;;;;;;;;5026874;28;20101;-75
2023/06/03 13:41:17;;;;;;;1.40;0.80;;;;;;;;;;5020729;28;20108;-75
2023/06/03 13:43:43;;;;;;;1.38;0.85;;;;;;;;;;5021070;28;20056;-75
2023/06/03 13:46:09;;;;;;;4.65;0.82;;;;;;;;;;5024924;28;20056;-75
2023/06/03 13:48:35;;;;;;;7.35;1.25;;;;;;;;;;5028093;28;20045;-75
2023/06/03 13:51:01;;;;;;;1.73;0.70;;;;;;;;;;5018905;28;20033;-75
2023/06/03 13:53:27;;;;;;;2.17;0.75;;;;;;;;;;5011495;28;20467;-75
2023/06/03 13:55:54;;;;;;;1.60;0.82;;;;;;;;;;5024380;28;20033;-75
2023/06/03 13:58:21;;;;;;;3.10;0.98;;;;;;;;;;5015232;28;20026;-75
2023/06/03 14:00:47;;;;;;;2.42;1.10;;;;;;;;;;5010703;28;20026;-75
2023/06/03 14:03:13;;;;;;;1.25;0.90;;;;;;;;;;5017903;28;20480;-75
2023/06/03 14:05:39;;;;;;;2.17;1.23;;;;;;;;;;5003916;28;20041;-75
2023/06/03 14:08:05;;;;;;;2.35;0.88;;;;;;;;;;5009246;28;20124;-75
2023/06/03 14:10:31;;;;;;;1.95;0.73;;;;;;;;;;5016105;28;20453;-75
2023/06/03 14:12:57;;;;;;;1.33;0.88;;;;;;;;;;5027307;28;20068;-75
2023/06/03 14:15:23;;;;;;;4.53;0.82;;;;;;;;;;5021557;28;20053;-75
2023/06/03 14:17:49;;;;;;;2.88;1.10;;;;;;;;;;5001086;28;20029;-74
2023/06/03 14:20:15;;;;;;;4.38;1.08;;;;;;;;;;5027816;28;20033;-75
2023/06/03 14:22:41;;;;;;;4.82;1.10;;;;;;;;;;4998084;28;20032;-75
2023/06/03 14:25:08;;;;;;;3.85;1.02;;;;;;;;;;5025298;28;20022;-76
2023/06/03 14:27:34;;;;;;;1.98;1.02;;;;;;;;;;5021529;28;20029;-75
2023/06/03 14:30:00;;;;;;;7.50;1.02;;;;;;;;;;5017977;28;20487;-75
2023/06/03 14:32:26;;;;;;;2.05;1.10;;;;;;;;;;5028313;28;20025;-75
2023/06/03 14:34:52;;;;;;;3.45;1.10;;;;;;;;;;4998862;28;20091;-75